Time;durP1;ratioP1;P1;durP2;ratioP2;P2;SDS_P1;SDS_P2;PMS_P1;PMS_P2;Temp;Humidity;BMP_temperature;BMP_pressure;BME280_temperature;BME280_humidity;BME280_pressure;Samples;Min_cycle;Max_cycle;Signal;HPM_P1;HPM_P2
2022/07/05 00:00:53;;;;;;;1.17;0.90;;;;;;;19.88;48.43;97566.50;5024950;28;20610;-76
2022/07/05 00:03:18;;;;;;;2.50;0.70;;;;;;;19.76;48.57;97567.00;5037565;27;20195;-76
2022/07/05 00:05:44;;;;;;;0.75;0.68;;;;;;;19.67;48.76;97568.72;5042350;27;20187;-75
2022/07/05 00:08:09;;;;;;;1.17;0.85;;;;;;;19.61;48.85;97565.41;5021698;28;20679;-75
2022/07/05 00:10:36;;;;;;;2.40;0.90;;;;;;;19.59;49.09;97569.44;5024207;27;20767;-76
2022/07/05 00:13:02;;;;;;;0.85;0.60;;;;;;;19.57;49.36;97567.06;5037793;28;20248;-75
2022/07/05 00:15:28;;;;;;;1.63;0.88;;;;;;;19.51;49.09;97570.88;5029917;28;20172;-76
2022/07/05 00:17:53;;;;;;;4.63;1.42;;;;;;;19.51;49.24;97562.19;5044036;28;20179;-76
2022/07/05 00:20:19;;;;;;;1.17;0.70;;;;;;;19.42;49.75;97570.00;5027456;28;20646;-78
2022/07/05 00:22:44;;;;;;;2.67;0.90;;;;;;;19.39;49.69;97573.22;5034127;27;20243;-78
2022/07/05 00:25:10;;;;;;;1.25;0.70;;;;;;;19.31;49.71;97568.59;5045830;28;20222;-77
2022/07/05 00:27:35;;;;;;;1.67;0.80;;;;;;;19.28;49.62;97565.47;5047478;27;20179;-75
2022/07/05 00:30:00;;;;;;;1.77;1.00;;;;;;;19.26;49.14;97561.53;5025527;28;20195;-75
2022/07/05 00:32:26;;;;;;;1.10;0.70;;;;;;;19.22;49.45;97564.00;5010181;28;20231;-76
2022/07/05 00:34:51;;;;;;;3.13;0.63;;;;;;;19.16;49.56;97559.88;5026855;28;20281;-76
2022/07/05 00:37:17;;;;;;;1.35;0.70;;;;;;;19.11;49.54;97559.97;5026453;28;20191;-75
2022/07/05 00:39:42;;;;;;;2.25;0.82;;;;;;;19.09;49.46;97562.91;4976169;28;20204;-76
2022/07/05 00:42:08;;;;;;;1.00;0.80;;;;;;;19.06;49.89;97563.47;5020390;28;20303;-76
2022/07/05 00:44:36;;;;;;;2.35;0.80;;;;;;;19.01;49.47;97563.56;5038527;27;20223;-75
2022/07/05 00:47:03;;;;;;;1.00;0.73;;;;;;;19.03;49.21;97569.31;5022880;28;20632;-75
2022/07/05 00:49:29;;;;;;;1.85;0.73;;;;;;;19.04;49.19;97563.00;5043396;28;20639;-75
2022/07/05 00:51:55;;;;;;;1.77;0.73;;;;;;;19.02;49.23;97567.78;5026687;28;20621;-75
2022/07/05 00:54:21;;;;;;;2.15;0.57;;;;;;;19.04;49.13;97568.25;5023768;28;20191;-75
2022/07/05 00:56:46;;;;;;;1.85;0.70;;;;;;;19.00;49.48;97569.91;5025772;28;20287;-75
2022/07/05 00:59:12;;;;;;;3.03;1.17;;;;;;;19.00;49.47;97572.53;5019644;28;20288;-75
2022/07/05 01:01:37;;;;;;;1.23;0.70;;;;;;;18.98;49.70;97573.91;5033721;28;20116;-77
2022/07/05 01:04:03;;;;;;;1.13;0.65;;;;;;;18.84;50.39;97577.28;5044003;28;20272;-77
2022/07/05 01:06:28;;;;;;;2.13;0.75;;;;;;;18.83;50.46;97569.66;5033677;28;20165;-77
2022/07/05 01:08:54;;;;;;;3.08;1.10;;;;;;;18.70;50.73;97564.00;5039817;28;20098;-77
2022/07/05 01:11:19;;;;;;;1.73;0.82;;;;;;;18.67;51.05;97567.22;5029772;28;20151;-77
2022/07/05 01:13:45;;;;;;;1.65;1.00;;;;;;;18.63;51.26;97568.09;5020620;28;20201;-77
2022/07/05 01:16:10;;;;;;;0.93;0.70;;;;;;;18.58;51.18;97573.44;5029908;28;20118;-77
2022/07/05 01:18:36;;;;;;;0.93;0.80;;;;;;;18.57;51.06;97571.88;5049446;27;20283;-75
2022/07/05 01:21:02;;;;;;;1.60;0.65;;;;;;;18.50;51.02;97575.63;5046427;27;20618;-75
2022/07/05 01:23:30;;;;;;;2.30;0.85;;;;;;;18.44;50.95;97566.25;5030496;27;20249;-75
2022/07/05 01:25:56;;;;;;;3.00;1.05;;;;;;;18.37;51.56;97567.66;5030043;27;20304;-75
2022/07/05 01:28:22;;;;;;;1.65;0.70;;;;;;;18.38;51.35;97570.03;5030342;27;20207;-75
2022/07/05 01:30:48;;;;;;;1.83;0.68;;;;;;;18.28;51.76;97564.88;5030596;27;20177;-75
2022/07/05 01:33:13;;;;;;;2.20;0.80;;;;;;;18.29;51.00;97575.16;5030401;27;20268;-75
2022/07/05 01:35:39;;;;;;;2.35;0.80;;;;;;;18.25;50.99;97576.00;5039164;27;20252;-75
2022/07/05 01:38:04;;;;;;;1.33;0.80;;;;;;;18.14;51.50;97573.50;5028318;27;20104;-75
2022/07/05 01:40:30;;;;;;;2.42;0.77;;;;;;;18.09;51.30;97575.41;5047548;27;20276;-75
2022/07/05 01:42:56;;;;;;;1.40;0.57;;;;;;;18.06;51.49;97574.16;5030326;27;20762;-75
2022/07/05 01:45:41;;;;;;;3.40;0.77;;;;;;;18.03;51.78;97579.97;5021258;27;20259;-75
2022/07/05 01:48:09;;;;;;;1.80;0.90;;;;;;;17.90;52.27;97570.13;5047525;27;20094;-77
2022/07/05 01:50:41;;;;;;;1.67;0.80;;;;;;;17.86;52.41;97575.16;5017174;27;20272;-77
2022/07/05 01:53:11;;;;;;;2.78;0.80;;;;;;;17.85;52.46;97576.19;5033109;27;20182;-77
2022/07/05 01:55:36;;;;;;;1.23;0.80;;;;;;;17.92;52.75;97581.97;5049370;27;20632;-77
2022/07/05 01:58:02;;;;;;;2.00;0.80;;;;;;;17.86;52.75;97577.00;5050006;27;20164;-77
2022/07/05 02:00:27;;;;;;;1.40;0.93;;;;;;;17.79;52.88;97570.22;5032909;27;20282;-77
2022/07/05 02:02:53;;;;;;;2.13;0.82;;;;;;;17.73;53.20;97571.31;5018192;27;20203;-77
2022/07/05 02:05:19;;;;;;;1.50;0.90;;;;;;;17.75;53.10;97573.69;5049482;27;20203;-77
2022/07/05 02:07:51;;;;;;;1.48;0.80;;;;;;;17.59;53.37;97565.94;5034099;27;20162;-77
2022/07/05 02:10:16;;;;;;;2.45;0.90;;;;;;;17.70;53.28;97573.72;5031495;27;20782;-77
2022/07/05 02:12:42;;;;;;;0.80;0.80;;;;;;;17.65;53.16;97568.53;5047432;27;20347;-77
2022/07/05 02:15:08;;;;;;;3.05;0.88;;;;;;;17.64;53.29;97566.97;5025817;27;20206;-77
2022/07/05 02:17:33;;;;;;;2.17;0.82;;;;;;;17.63;53.16;97565.38;5040829;27;20164;-77
2022/07/05 02:19:59;;;;;;;1.65;1.00;;;;;;;17.63;52.99;97566.16;5032210;27;20198;-77
2022/07/05 02:22:25;;;;;;;1.60;0.75;;;;;;;17.60;52.89;97562.25;5049916;27;20186;-77
2022/07/05 02:24:50;;;;;;;1.77;1.00;;;;;;;17.56;52.71;97558.63;5048861;27;20525;-77
2022/07/05 02:27:16;;;;;;;1.75;1.00;;;;;;;17.55;52.81;97564.16;5015237;27;20265;-77
2022/07/05 02:29:41;;;;;;;2.58;0.90;;;;;;;17.53;53.00;97571.53;5032168;27;20529;-77
2022/07/05 02:32:07;;;;;;;1.20;0.85;;;;;;;17.42;53.61;97566.38;5045509;27;20196;-77
2022/07/05 02:34:32;;;;;;;1.73;0.90;;;;;;;17.45;53.17;97561.63;5048922;27;20282;-77
2022/07/05 02:36:57;;;;;;;2.28;0.80;;;;;;;17.48;53.15;97561.88;5025909;27;20198;-77
2022/07/05 02:39:23;;;;;;;1.33;1.00;;;;;;;17.41;53.08;97561.41;5029013;27;20283;-77
2022/07/05 02:41:48;;;;;;;1.90;1.02;;;;;;;17.46;53.26;97566.63;5048355;27;20272;-77
2022/07/05 02:44:14;;;;;;;2.45;0.95;;;;;;;17.39;53.48;97572.22;5025836;27;20221;-77
2022/07/05 02:46:39;;;;;;;1.77;0.70;;;;;;;17.35;53.53;97575.69;5023891;27;20713;-77
2022/07/05 02:49:04;;;;;;;1.83;0.98;;;;;;;17.22;53.86;97577.09;5041625;27;20225;-77
2022/07/05 02:51:30;;;;;;;3.13;0.95;;;;;;;17.06;54.02;97579.09;5028260;27;20364;-76
2022/07/05 02:53:56;;;;;;;2.05;0.93;;;;;;;17.00;54.50;97580.22;5026690;27;20204;-76
2022/07/05 02:56:21;;;;;;;3.13;1.10;;;;;;;16.97;54.62;97580.75;5045536;27;20191;-76
2022/07/05 02:58:46;;;;;;;2.20;1.48;;;;;;;16.92;54.80;97584.19;5022636;27;20160;-76
2022/07/05 03:01:12;;;;;;;1.25;1.08;;;;;;;16.91;54.98;97580.00;5047059;27;20200;-75
2022/07/05 03:03:37;;;;;;;1.27;1.10;;;;;;;16.91;55.06;97577.34;5027890;27;20166;-76
2022/07/05 03:06:03;;;;;;;2.00;1.13;;;;;;;16.96;54.95;97574.69;5028024;27;20261;-76
2022/07/05 03:08:28;;;;;;;3.38;0.85;;;;;;;16.94;54.83;97570.78;5021201;27;20186;-76
2022/07/05 03:10:53;;;;;;;1.73;0.90;;;;;;;16.98;54.79;97572.59;5045084;27;20168;-76
2022/07/05 03:13:19;;;;;;;2.50;1.00;;;;;;;17.00;54.52;97578.34;5040869;27;20192;-76
2022/07/05 03:15:44;;;;;;;2.10;0.90;;;;;;;17.01;54.28;97577.28;5000353;27;20285;-76
2022/07/05 03:18:10;;;;;;;1.42;0.90;;;;;;;16.99;54.27;97574.13;5045202;27;20276;-75
2022/07/05 03:20:35;;;;;;;1.88;1.02;;;;;;;16.98;54.04;97582.31;5045328;27;20075;-76
2022/07/05 03:23:00;;;;;;;3.47;1.05;;;;;;;17.00;54.11;97586.25;5045238;27;20281;-76
2022/07/05 03:25:26;;;;;;;2.92;1.08;;;;;;;16.99;54.75;97589.16;5038693;27;20693;-76
2022/07/05 03:27:51;;;;;;;2.95;1.17;;;;;;;16.99;54.92;97583.88;5047219;27;20179;-76
2022/07/05 03:30:16;;;;;;;3.03;0.98;;;;;;;16.93;54.58;97580.53;5047370;27;20282;-76
2022/07/05 03:32:42;;;;;;;1.08;0.80;;;;;;;16.91;54.65;97581.84;5044961;27;20207;-75
2022/07/05 03:35:08;;;;;;;1.45;0.90;;;;;;;16.92;54.60;97580.78;5045113;27;20223;-76
2022/07/05 03:37:33;;;;;;;0.98;0.88;;;;;;;16.90;54.65;97581.06;5025327;27;20252;-76
2022/07/05 03:39:58;;;;;;;1.75;0.90;;;;;;;16.92;54.22;97584.19;5044419;27;20643;-76
2022/07/05 03:42:24;;;;;;;3.30;1.33;;;;;;;16.90;54.18;97590.81;5028037;27;20176;-76
2022/07/05 03:44:49;;;;;;;2.40;0.95;;;;;;;16.89;54.63;97579.47;5046816;27;20375;-76
2022/07/05 03:47:15;;;;;;;2.78;0.85;;;;;;;16.91;54.83;97590.50;5027929;27;20293;-76
2022/07/05 03:49:40;;;;;;;1.92;1.00;;;;;;;16.91;55.17;97587.88;5027562;27;20136;-76
2022/07/05 03:52:05;;;;;;;1.85;0.82;;;;;;;16.92;54.98;97588.69;5049270;27;20698;-75
2022/07/05 03:54:31;;;;;;;1.85;0.85;;;;;;;16.95;54.86;97599.44;5044290;27;20214;-76
2022/07/05 03:56:56;;;;;;;2.08;1.25;;;;;;;16.94;55.04;97597.84;5044852;27;20368;-76
2022/07/05 03:59:21;;;;;;;3.25;1.50;;;;;;;16.89;54.91;97602.38;5044712;27;20637;-76
2022/07/05 04:01:47;;;;;;;1.67;1.10;;;;;;;16.92;54.86;97601.84;5027551;27;20655;-75
2022/07/05 04:04:12;;;;;;;1.00;0.90;;;;;;;17.00;54.69;97607.28;5045354;27;20168;-75
2022/07/05 04:06:38;;;;;;;1.85;0.98;;;;;;;17.02;54.62;97610.44;5028381;27;20199;-75
2022/07/05 04:09:03;;;;;;;0.93;0.70;;;;;;;17.10;54.41;97616.16;5027298;28;20175;-76
2022/07/05 04:11:29;;;;;;;1.90;0.77;;;;;;;17.12;54.41;97608.75;5043988;27;20649;-75
2022/07/05 04:13:54;;;;;;;1.77;1.10;;;;;;;17.18;54.68;97620.81;5015995;28;20276;-76
2022/07/05 04:16:20;;;;;;;0.90;0.80;;;;;;;17.23;54.36;97615.53;5042919;28;20277;-76
2022/07/05 04:18:45;;;;;;;3.53;1.00;;;;;;;17.24;54.40;97622.38;5026878;28;20397;-76
2022/07/05 04:21:11;;;;;;;0.80;0.80;;;;;;;17.32;53.93;97616.47;5027012;28;20592;-76
2022/07/05 04:23:36;;;;;;;2.20;1.08;;;;;;;17.32;54.52;97624.38;5023237;28;20271;-75
2022/07/05 04:26:01;;;;;;;2.35;0.90;;;;;;;17.32;55.06;97620.97;5046169;28;20172;-75
2022/07/05 04:28:29;;;;;;;1.73;1.30;;;;;;;17.38;55.58;97617.25;5032321;28;20335;-76
2022/07/05 04:30:56;;;;;;;1.80;0.93;;;;;;;17.40;55.34;97618.53;5026528;28;20199;-75
2022/07/05 04:33:22;;;;;;;2.45;1.15;;;;;;;17.53;55.50;97616.28;5003625;28;20286;-75
2022/07/05 04:35:47;;;;;;;1.75;0.90;;;;;;;17.62;55.31;97617.28;5040763;28;20592;-75
2022/07/05 04:38:12;;;;;;;2.03;0.77;;;;;;;17.72;54.75;97611.91;5029756;28;20134;-75
2022/07/05 04:40:38;;;;;;;2.60;0.90;;;;;;;17.76;54.62;97617.41;5003158;28;20726;-76
2022/07/05 04:43:03;;;;;;;1.58;0.80;;;;;;;17.79;54.77;97620.25;5028950;27;20195;-75
2022/07/05 04:45:29;;;;;;;3.45;1.00;;;;;;;17.87;54.88;97626.00;5013415;28;20654;-75
2022/07/05 04:47:54;;;;;;;1.38;0.93;;;;;;;18.04;54.69;97628.94;5025271;28;20579;-75
2022/07/05 04:50:20;;;;;;;1.85;0.95;;;;;;;18.09;54.47;97622.84;5049394;27;20259;-75
2022/07/05 04:52:45;;;;;;;1.10;1.00;;;;;;;18.10;54.86;97619.94;5028525;27;20200;-76
2022/07/05 04:55:10;;;;;;;2.35;1.48;;;;;;;18.19;54.33;97630.63;5049373;27;20599;-76
2022/07/05 04:57:40;;;;;;;1.02;0.90;;;;;;;18.28;54.40;97628.16;5030428;27;20255;-76
2022/07/05 05:00:10;;;;;;;2.67;1.10;;;;;;;18.39;54.08;97634.88;5046683;27;20264;-76
2022/07/05 05:02:35;;;;;;;1.58;0.90;;;;;;;18.49;53.83;97628.66;5029485;27;20176;-76
2022/07/05 05:05:01;;;;;;;1.45;1.20;;;;;;;18.57;54.16;97635.16;5029157;27;20276;-76
2022/07/05 05:07:27;;;;;;;1.75;0.75;;;;;;;18.68;53.28;97636.59;5046280;27;20172;-76
2022/07/05 05:09:52;;;;;;;2.60;1.00;;;;;;;18.69;53.41;97631.00;5007398;27;20698;-76
2022/07/05 05:12:18;;;;;;;2.75;1.38;;;;;;;18.83;53.01;97633.78;5046577;27;20274;-76
2022/07/05 05:14:43;;;;;;;2.10;1.10;;;;;;;18.99;51.99;97644.09;5015693;27;20277;-76
2022/07/05 05:17:09;;;;;;;2.58;1.02;;;;;;;19.11;51.86;97643.63;5049016;27;20715;-76
2022/07/05 05:19:34;;;;;;;1.45;0.90;;;;;;;19.22;52.03;97640.53;5046916;27;20245;-76
2022/07/05 05:21:59;;;;;;;1.95;1.20;;;;;;;19.34;52.34;97640.09;5029791;27;20191;-76
2022/07/05 05:24:25;;;;;;;3.13;1.35;;;;;;;19.44;52.12;97647.06;5012317;27;20175;-76
2022/07/05 05:26:50;;;;;;;1.23;1.00;;;;;;;19.57;51.72;97648.16;5046640;27;20279;-76
2022/07/05 05:29:17;;;;;;;2.03;1.00;;;;;;;19.58;51.39;97642.59;5043241;27;20225;-76
2022/07/05 05:31:42;;;;;;;2.28;1.10;;;;;;;19.62;49.92;97646.22;5012864;27;20171;-77
2022/07/05 05:34:08;;;;;;;0.90;0.80;;;;;;;19.74;49.64;97637.84;5046918;27;20269;-77
2022/07/05 05:36:33;;;;;;;0.93;0.73;;;;;;;19.90;49.06;97643.63;5046555;27;20595;-77
2022/07/05 05:38:58;;;;;;;2.33;1.30;;;;;;;20.07;48.87;97644.91;5028765;27;20624;-77
2022/07/05 05:41:24;;;;;;;2.08;1.25;;;;;;;20.16;48.76;97651.84;5039960;27;20286;-77
2022/07/05 05:43:49;;;;;;;1.45;1.05;;;;;;;20.23;47.84;97640.88;5050573;27;20199;-77
2022/07/05 05:46:14;;;;;;;0.98;0.70;;;;;;;20.33;48.42;97645.97;5048816;27;20211;-77
2022/07/05 05:48:40;;;;;;;1.38;0.90;;;;;;;20.48;47.91;97652.03;5013535;27;20271;-77
2022/07/05 05:51:05;;;;;;;2.30;1.00;;;;;;;20.54;47.71;97661.41;5000692;28;20592;-78
2022/07/05 05:53:30;;;;;;;0.82;0.70;;;;;;;20.55;47.54;97662.97;5046010;27;20333;-77
2022/07/05 05:55:56;;;;;;;2.47;1.20;;;;;;;20.64;47.13;97661.22;5047958;27;20178;-77
2022/07/05 05:58:23;;;;;;;1.75;0.90;;;;;;;20.69;46.97;97657.69;5013021;27;20638;-77
2022/07/05 06:00:51;;;;;;;1.15;0.80;;;;;;;20.84;46.92;97661.88;5046910;27;20581;-77
2022/07/05 06:03:20;;;;;;;3.10;0.90;;;;;;;20.99;47.32;97668.66;5030214;27;20229;-76
2022/07/05 06:05:46;;;;;;;1.85;0.70;;;;;;;21.03;47.28;97667.00;5038906;27;20263;-77
2022/07/05 06:08:12;;;;;;;1.08;0.70;;;;;;;21.14;46.75;97666.44;5030663;27;20349;-78
2022/07/05 06:10:38;;;;;;;3.05;1.02;;;;;;;21.28;46.84;97674.34;5038280;27;20261;-77
2022/07/05 06:13:06;;;;;;;1.38;1.00;;;;;;;21.32;46.73;97669.22;5035262;27;20207;-78
2022/07/05 06:15:32;;;;;;;1.88;0.90;;;;;;;21.44;46.07;97673.97;5037031;27;20267;-77
2022/07/05 06:17:58;;;;;;;2.88;0.70;;;;;;;21.62;46.20;97677.50;5044928;27;20633;-77
2022/07/05 06:20:25;;;;;;;2.55;0.98;;;;;;;21.70;45.82;97680.19;5048111;27;20636;-77
2022/07/05 06:22:51;;;;;;;1.80;0.90;;;;;;;21.79;44.70;97674.16;5047933;27;20537;-77
2022/07/05 06:25:17;;;;;;;1.58;0.73;;;;;;;21.93;45.10;97689.97;5034719;27;20269;-77
2022/07/05 06:27:47;;;;;;;1.48;1.08;;;;;;;22.14;44.25;97682.25;5028938;27;20290;-77
2022/07/05 06:30:16;;;;;;;3.28;0.85;;;;;;;22.35;44.44;97687.81;5013816;27;20403;-77
2022/07/05 06:32:45;;;;;;;1.55;0.80;;;;;;;22.49;43.13;97683.16;5013184;27;20138;-77
2022/07/05 06:35:11;;;;;;;1.88;1.38;;;;;;;22.83;42.75;97681.63;5045496;27;20269;-77
2022/07/05 06:37:43;;;;;;;1.23;0.70;;;;;;;22.98;42.82;97683.03;5025851;27;20258;-77
2022/07/05 06:40:10;;;;;;;0.68;0.65;;;;;;;23.34;41.98;97681.94;5019649;27;20211;-76
2022/07/05 06:42:35;;;;;;;1.58;0.60;;;;;;;23.45;41.97;97682.38;5047562;27;20198;-77
2022/07/05 06:45:01;;;;;;;1.38;0.80;;;;;;;23.56;41.26;97686.25;5041451;27;20217;-77
2022/07/05 06:47:26;;;;;;;2.88;0.90;;;;;;;23.90;40.88;97688.03;5046732;27;20206;-76
2022/07/05 06:49:51;;;;;;;1.52;1.00;;;;;;;24.29;39.11;97685.38;5012711;27;20151;-76
2022/07/05 06:52:17;;;;;;;2.47;0.90;;;;;;;24.53;39.62;97689.31;5046985;27;20283;-78
2022/07/05 06:54:42;;;;;;;0.95;0.95;;;;;;;24.78;38.94;97691.06;5010114;27;20189;-78
2022/07/05 06:57:08;;;;;;;1.45;0.90;;;;;;;24.58;38.49;97697.16;5047365;27;20210;-76
2022/07/05 06:59:33;;;;;;;2.47;0.65;;;;;;;24.50;38.46;97688.06;5045626;27;20195;-77
2022/07/05 07:01:58;;;;;;;2.25;1.10;;;;;;;24.82;38.47;97694.63;5012738;27;20285;-78
2022/07/05 07:04:24;;;;;;;2.45;0.80;;;;;;;25.22;38.08;97688.81;5012200;28;20613;-77
2022/07/05 07:06:49;;;;;;;2.90;1.23;;;;;;;25.23;38.32;97695.69;5045825;27;20219;-78
2022/07/05 07:09:20;;;;;;;1.67;1.20;;;;;;;25.57;37.27;97704.47;5007536;28;20213;-77
2022/07/05 07:11:46;;;;;;;2.17;1.00;;;;;;;25.88;37.40;97699.78;5009935;27;20220;-77
2022/07/05 07:14:12;;;;;;;1.15;1.05;;;;;;;25.91;37.30;97699.88;5040565;27;20192;-77
2022/07/05 07:16:37;;;;;;;1.52;0.90;;;;;;;25.74;36.65;97700.09;5048027;27;20302;-77
2022/07/05 07:19:02;;;;;;;1.17;0.90;;;;;;;25.85;36.65;97695.84;5029968;27;20198;-77
2022/07/05 07:21:28;;;;;;;1.52;0.93;;;;;;;25.91;36.50;97702.56;5046994;27;20173;-78
2022/07/05 07:23:53;;;;;;;1.33;1.20;;;;;;;26.37;36.20;97702.44;5026433;27;20198;-77
2022/07/05 07:26:19;;;;;;;2.17;1.20;;;;;;;26.39;35.45;97704.78;5005083;27;20277;-77
2022/07/05 07:28:44;;;;;;;1.33;1.10;;;;;;;26.46;35.04;97705.00;5028389;27;20184;-78
2022/07/05 07:31:10;;;;;;;3.35;0.90;;;;;;;26.62;34.18;97707.78;5030384;27;20365;-78
2022/07/05 07:33:35;;;;;;;1.95;1.15;;;;;;;26.82;34.44;97709.53;5029090;27;20211;-77
2022/07/05 07:36:01;;;;;;;3.10;1.27;;;;;;;26.95;34.39;97710.28;5033550;27;20249;-78
2022/07/05 07:38:26;;;;;;;1.73;1.08;;;;;;;27.19;33.32;97717.41;5034454;27;20191;-78
2022/07/05 07:40:52;;;;;;;1.50;1.10;;;;;;;27.09;32.82;97718.69;5037343;27;20192;-79
2022/07/05 07:43:18;;;;;;;1.70;1.00;;;;;;;27.06;31.70;97710.59;5019308;27;20262;-78
2022/07/05 07:45:43;;;;;;;2.15;0.90;;;;;;;27.48;31.92;97720.13;5035509;27;20191;-78
2022/07/05 07:48:09;;;;;;;1.77;1.20;;;;;;;27.47;30.94;97719.34;5012791;27;20412;-78
2022/07/05 07:50:34;;;;;;;1.80;1.17;;;;;;;27.79;31.76;97720.16;5048353;27;20200;-78
2022/07/05 07:53:00;;;;;;;1.42;1.30;;;;;;;28.12;31.59;97718.28;5036758;27;20268;-78
2022/07/05 07:55:26;;;;;;;1.75;1.17;;;;;;;28.21;30.34;97718.91;5019067;28;20155;-78
2022/07/05 07:57:51;;;;;;;1.75;1.17;;;;;;;28.18;30.72;97717.66;5022403;27;21077;-78
2022/07/05 08:00:17;;;;;;;1.17;1.00;;;;;;;28.41;30.59;97719.72;5035207;27;20198;-78
2022/07/05 08:02:42;;;;;;;2.10;1.10;;;;;;;28.57;29.44;97709.78;5030774;27;20212;-78
2022/07/05 08:05:09;;;;;;;1.33;1.20;;;;;;;28.91;29.25;97718.13;5050324;27;20795;-78
2022/07/05 08:07:35;;;;;;;2.08;1.17;;;;;;;28.80;29.44;97719.81;5043687;27;20373;-77
2022/07/05 08:10:01;;;;;;;2.53;1.38;;;;;;;28.92;29.24;97718.91;5020536;27;20099;-78
2022/07/05 08:12:27;;;;;;;1.67;1.35;;;;;;;28.92;28.67;97718.91;5027096;28;20164;-77
2022/07/05 08:14:52;;;;;;;2.88;1.10;;;;;;;29.52;28.06;97716.63;5042504;28;20232;-76
2022/07/05 08:17:20;;;;;;;2.00;1.80;;;;;;;29.43;28.19;97721.44;5042995;27;20274;-77
2022/07/05 08:22:30;;;;;;;1.33;1.17;;;;;;;29.41;28.67;97718.34;5046109;27;20283;-76
2022/07/05 08:24:56;;;;;;;1.42;1.20;;;;;;;29.50;27.85;97713.53;5026368;28;20287;-77
2022/07/05 08:27:21;;;;;;;1.40;1.20;;;;;;;29.55;28.80;97709.78;5047228;27;20186;-77
2022/07/05 08:29:47;;;;;;;4.05;1.55;;;;;;;29.68;28.40;97711.16;5030975;27;20199;-77
2022/07/05 08:32:12;;;;;;;1.42;1.10;;;;;;;29.89;28.40;97715.38;5014619;27;20176;-77
2022/07/05 08:34:38;;;;;;;4.03;1.35;;;;;;;29.94;28.21;97716.97;5023971;27;20123;-76
2022/07/05 08:37:04;;;;;;;1.85;1.40;;;;;;;30.38;26.64;97720.00;5046991;27;20630;-77
2022/07/05 08:39:29;;;;;;;1.63;1.00;;;;;;;30.36;26.65;97710.72;5047305;27;20295;-76
2022/07/05 08:41:57;;;;;;;3.33;1.42;;;;;;;30.12;26.24;97717.25;5018264;27;20164;-76
2022/07/05 08:44:22;;;;;;;1.08;0.82;;;;;;;30.08;26.46;97716.44;5044713;27;20432;-76
2022/07/05 08:46:50;;;;;;;1.85;0.98;;;;;;;30.12;26.60;97711.88;5004851;27;20269;-77
2022/07/05 08:49:22;;;;;;;2.47;0.90;;;;;;;30.15;26.25;97709.25;5021295;27;20327;-76
2022/07/05 08:51:47;;;;;;;1.73;0.90;;;;;;;30.17;25.94;97714.25;5031411;27;20185;-76
2022/07/05 08:54:13;;;;;;;2.15;1.00;;;;;;;30.23;26.12;97707.47;5028613;27;20314;-76
2022/07/05 08:56:41;;;;;;;1.10;0.82;;;;;;;29.80;26.94;97707.56;5042971;27;20287;-77
2022/07/05 08:59:06;;;;;;;1.90;1.00;;;;;;;30.31;26.70;97705.63;5046816;27;20240;-77
2022/07/05 09:01:34;;;;;;;1.65;0.95;;;;;;;30.57;26.47;97702.19;5046322;27;20351;-76
2022/07/05 09:04:10;;;;;;;2.38;0.90;;;;;;;30.69;25.44;97707.34;5015978;27;20356;-76
2022/07/05 09:06:38;;;;;;;0.90;0.90;;;;;;;30.85;26.14;97703.69;5024500;27;20235;-76
2022/07/05 09:09:05;;;;;;;1.92;1.10;;;;;;;30.99;25.77;97703.88;5046616;27;20244;-76
2022/07/05 09:11:39;;;;;;;0.98;0.90;;;;;;;31.32;24.23;97699.63;5029375;27;20634;-77
2022/07/05 09:14:06;;;;;;;3.35;1.30;;;;;;;31.54;24.54;97692.56;5035189;27;20194;-76
2022/07/05 09:16:32;;;;;;;1.65;1.05;;;;;;;30.90;25.90;97698.00;5046269;27;20354;-77
2022/07/05 09:19:05;;;;;;;2.35;0.80;;;;;;;31.02;25.63;97702.38;5044197;27;20309;-76
2022/07/05 09:21:30;;;;;;;1.15;1.00;;;;;;;30.62;26.25;97702.66;5046176;27;20644;-77
2022/07/05 09:24:04;;;;;;;1.27;0.70;;;;;;;30.67;26.11;97704.22;5045071;27;20296;-76
2022/07/05 09:26:49;;;;;;;2.22;0.98;;;;;;;31.01;25.38;97706.22;5013568;27;20659;-76
2022/07/05 09:29:19;;;;;;;2.00;1.33;;;;;;;30.96;25.61;97704.63;5042322;27;20199;-76
2022/07/05 09:31:46;;;;;;;3.42;1.20;;;;;;;31.13;23.86;97712.09;5047847;27;20641;-76
2022/07/05 09:34:14;;;;;;;1.00;0.90;;;;;;;31.46;23.79;97704.38;5042024;27;20292;-76
2022/07/05 09:37:02;;;;;;;1.10;1.00;;;;;;;31.02;24.42;97713.91;5029348;27;20544;-76
2022/07/05 09:39:37;;;;;;;1.23;1.10;;;;;;;30.80;25.81;97716.31;5029076;27;20268;-76
2022/07/05 09:42:14;;;;;;;2.42;1.23;;;;;;;31.37;24.29;97710.06;5047538;27;20231;-76
2022/07/05 09:44:49;;;;;;;1.13;0.90;;;;;;;31.05;25.10;97707.81;5047218;27;20244;-77
2022/07/05 09:47:16;;;;;;;1.50;1.00;;;;;;;31.41;25.72;97708.19;5043033;27;20281;-76
2022/07/05 09:49:47;;;;;;;2.65;1.08;;;;;;;31.15;26.03;97712.53;5005450;27;20681;-77
2022/07/05 09:52:38;;;;;;;1.95;1.30;;;;;;;31.61;25.02;97710.69;5025907;27;20199;-77
2022/07/05 09:55:05;;;;;;;1.88;1.05;;;;;;;31.48;25.60;97713.63;4991731;27;20274;-77
2022/07/05 09:57:31;;;;;;;1.40;0.95;;;;;;;30.91;25.31;97710.28;5042327;27;20191;-77
2022/07/05 10:00:16;;;;;;;1.20;0.90;;;;;;;30.30;26.55;97706.75;5046194;27;20280;-77
2022/07/05 10:02:42;;;;;;;2.35;1.05;;;;;;;30.03;25.52;97707.53;5027216;27;20266;-76
2022/07/05 10:05:16;;;;;;;1.52;0.98;;;;;;;29.89;26.35;97715.38;5036554;27;20203;-76
2022/07/05 10:07:47;;;;;;;0.90;0.85;;;;;;;29.94;25.23;97715.06;5043553;27;20618;-77
2022/07/05 10:10:14;;;;;;;1.45;0.80;;;;;;;30.19;25.24;97710.06;5044821;27;20409;-77
2022/07/05 10:12:42;;;;;;;0.90;0.90;;;;;;;30.91;24.19;97708.38;5045277;27;20189;-77
2022/07/05 10:15:09;;;;;;;1.10;0.73;;;;;;;31.39;23.81;97698.94;5043850;27;20414;-77
2022/07/05 10:17:53;;;;;;;1.17;1.08;;;;;;;31.51;24.10;97690.59;4992070;28;20178;-78
2022/07/05 10:20:40;;;;;;;1.10;1.00;;;;;;;32.25;22.67;97699.66;5016702;27;20113;-77
2022/07/05 10:23:11;;;;;;;2.10;1.30;;;;;;;32.50;21.43;97702.53;5028523;27;20309;-77
2022/07/05 10:25:38;;;;;;;2.08;1.63;;;;;;;32.36;22.69;97699.75;5045447;27;20689;-78
2022/07/05 10:28:04;;;;;;;2.40;1.10;;;;;;;32.34;21.54;97696.63;5043868;27;20782;-77
2022/07/05 10:30:30;;;;;;;1.98;1.15;;;;;;;32.14;22.22;97696.91;5047352;27;20255;-77
2022/07/05 10:32:56;;;;;;;2.25;0.70;;;;;;;32.01;22.51;97695.63;4993462;28;20194;-77
2022/07/05 10:35:22;;;;;;;1.67;1.13;;;;;;;31.97;22.09;97700.22;5043933;27;20295;-77
2022/07/05 10:37:48;;;;;;;1.27;0.90;;;;;;;31.93;22.21;97695.59;5028593;27;20282;-77
2022/07/05 10:40:14;;;;;;;0.80;0.80;;;;;;;32.24;21.71;97695.44;5040682;27;20387;-76
2022/07/05 10:42:41;;;;;;;7.07;1.63;;;;;;;32.35;21.78;97700.91;5038176;27;20303;-77
2022/07/05 10:45:23;;;;;;;0.80;0.80;;;;;;;32.18;21.76;97691.53;5037959;27;20196;-77
2022/07/05 10:48:13;;;;;;;1.48;1.00;;;;;;;32.35;21.04;97693.56;5042485;27;20165;-77
2022/07/05 10:50:50;;;;;;;6.10;1.10;;;;;;;32.85;19.41;97698.47;5046124;27;20332;-76
2022/07/05 10:53:35;;;;;;;1.35;0.93;;;;;;;32.83;19.04;97698.06;5044339;27;20582;-77
2022/07/05 10:56:04;;;;;;;2.25;1.13;;;;;;;32.93;18.47;97694.63;5035955;27;20669;-77
2022/07/05 10:58:38;;;;;;;1.65;1.20;;;;;;;32.74;19.34;97693.03;5044611;27;20360;-77
2022/07/05 11:01:16;;;;;;;;;;;;;;;32.54;21.33;97689.81;5039835;27;20493;-77
2022/07/05 11:03:48;;;;;;;1.23;1.00;;;;;;;32.88;20.38;97696.94;5043916;27;20083;-77
2022/07/05 11:06:27;;;;;;;2.03;0.80;;;;;;;32.98;21.64;97686.19;5037813;27;20285;-76
2022/07/05 11:08:58;;;;;;;1.10;1.00;;;;;;;33.17;19.61;97687.81;5019108;27;20115;-76
2022/07/05 11:11:27;;;;;;;1.05;1.05;;;;;;;33.15;19.07;97689.34;5041118;27;20194;-77
2022/07/05 11:13:54;;;;;;;2.08;1.20;;;;;;;33.07;19.89;97677.72;5046460;27;20264;-76
2022/07/05 11:16:23;;;;;;;1.23;1.00;;;;;;;32.61;20.84;97679.13;5028732;27;20344;-77
2022/07/05 11:18:53;;;;;;;1.85;1.30;;;;;;;32.66;20.19;97676.06;5011912;27;20285;-77
2022/07/05 11:21:22;;;;;;;3.75;1.20;;;;;;;32.89;20.64;97661.50;5044818;27;20195;-77
2022/07/05 11:23:48;;;;;;;3.35;1.10;;;;;;;32.67;21.72;97672.19;5044897;27;20193;-77
2022/07/05 11:26:17;;;;;;;1.60;0.85;;;;;;;32.32;20.82;97680.06;5028057;27;20273;-77
2022/07/05 11:28:43;;;;;;;1.27;1.17;;;;;;;32.17;21.20;97682.69;5024694;27;20174;-77
2022/07/05 11:31:09;;;;;;;1.33;1.00;;;;;;;31.91;21.88;97675.56;5027983;27;20286;-77
2022/07/05 11:33:43;;;;;;;1.30;1.20;;;;;;;31.82;21.16;97680.47;5039021;27;20264;-77
2022/07/05 11:36:26;;;;;;;1.95;0.98;;;;;;;31.15;22.13;97669.50;5027705;27;20201;-76